createdAt,value
2022-11-08T00:00:56.670Z,19.75
2022-11-08T00:06:17.340Z,19.72
2022-11-08T00:11:37.749Z,19.80
2022-11-08T00:16:39.560Z,19.75
2022-11-08T00:21:41.512Z,19.70
2022-11-08T00:26:43.379Z,19.75
2022-11-08T00:31:45.335Z,19.75
2022-11-08T00:36:47.222Z,19.77
2022-11-08T00:41:49.146Z,19.73
2022-11-08T00:46:51.277Z,19.74
2022-11-08T00:51:53.450Z,19.77
2022-11-08T00:56:55.319Z,19.75
2022-11-08T01:01:57.452Z,19.83
2022-11-08T01:06:59.528Z,19.81
2022-11-08T01:12:01.458Z,19.73
2022-11-08T01:17:03.268Z,19.76
2022-11-08T01:22:05.148Z,19.77
2022-11-08T01:27:07.123Z,19.69
2022-11-08T01:32:08.950Z,19.78
2022-11-08T01:37:10.910Z,19.79
2022-11-08T01:42:12.819Z,19.74
2022-11-08T01:47:14.598Z,19.81
2022-11-08T01:52:20.905Z,19.73
2022-11-08T01:57:42.625Z,19.79
2022-11-08T02:02:48.829Z,19.84
2022-11-08T02:08:04.987Z,19.86
2022-11-08T02:13:15.069Z,19.80
2022-11-08T02:18:20.301Z,19.86
2022-11-08T02:23:27.324Z,19.75
2022-11-08T02:28:29.188Z,19.81
2022-11-08T02:33:32.969Z,19.84
2022-11-08T02:38:40.915Z,19.75
2022-11-08T02:43:42.878Z,19.80
2022-11-08T02:48:44.733Z,19.83
2022-11-08T02:53:46.747Z,19.80
2022-11-08T02:58:48.640Z,19.82
2022-11-08T03:03:50.567Z,19.75
2022-11-08T03:08:52.670Z,19.75
2022-11-08T03:13:54.494Z,19.76
2022-11-08T03:18:56.251Z,19.73
2022-11-08T03:23:58.161Z,19.81
2022-11-08T03:28:59.829Z,19.74
2022-11-08T03:34:01.854Z,19.81
2022-11-08T03:39:03.899Z,19.81
2022-11-08T03:44:06.114Z,19.83
2022-11-08T03:49:08.129Z,19.80
2022-11-08T03:54:10.872Z,19.67
2022-11-08T03:59:13.147Z,19.76
2022-11-08T04:04:15.345Z,19.83
2022-11-08T04:09:21.302Z,19.75
2022-11-08T04:14:42.515Z,19.72
2022-11-08T04:20:03.173Z,19.72
2022-11-08T04:25:05.490Z,19.84
2022-11-08T04:30:07.621Z,19.79
2022-11-08T04:35:09.525Z,19.73
2022-11-08T04:40:11.945Z,19.78
2022-11-08T04:45:14.291Z,19.81
2022-11-08T04:50:16.568Z,19.85
2022-11-08T04:55:18.750Z,19.77
2022-11-08T05:00:20.624Z,19.77
2022-11-08T05:05:22.983Z,19.69
2022-11-08T05:10:25.030Z,19.75
2022-11-08T05:15:26.841Z,19.77
2022-11-08T05:20:47.290Z,19.73
2022-11-08T05:25:49.288Z,19.70
2022-11-08T05:30:55.865Z,19.72
2022-11-08T05:36:05.688Z,19.69
2022-11-08T05:41:11.654Z,19.73
2022-11-08T05:46:14.687Z,19.70
2022-11-08T05:51:18.191Z,19.72
2022-11-08T05:56:20.225Z,19.72
2022-11-08T06:01:22.041Z,19.73
2022-11-08T06:06:24.531Z,19.84
2022-11-08T06:11:28.040Z,19.81
2022-11-08T06:16:30.116Z,19.74
2022-11-08T06:21:32.285Z,19.69
2022-11-08T06:26:34.387Z,19.74
2022-11-08T06:31:40.502Z,19.73
2022-11-08T06:36:44.897Z,19.71
2022-11-08T06:41:47.063Z,19.70
2022-11-08T06:46:49.004Z,19.70
2022-11-08T06:51:51.965Z,19.74
2022-11-08T06:56:56.028Z,19.76
2022-11-08T07:01:58.136Z,19.71
2022-11-08T07:07:00.266Z,19.65
2022-11-08T07:12:02.200Z,19.68
2022-11-08T07:17:04.590Z,19.67
2022-11-08T07:22:06.684Z,19.70
2022-11-08T07:27:09.429Z,19.70
2022-11-08T07:32:12.028Z,19.67
2022-11-08T07:37:14.116Z,19.75
2022-11-08T07:42:16.086Z,19.73
2022-11-08T07:47:17.904Z,19.79
2022-11-08T07:52:19.665Z,19.70
2022-11-08T07:57:21.678Z,19.75
2022-11-08T08:02:24.176Z,19.75
2022-11-08T08:07:26.017Z,19.85
2022-11-08T08:12:27.839Z,19.77
2022-11-08T08:17:29.857Z,19.86
2022-11-08T08:22:31.680Z,19.78
2022-11-08T08:27:33.504Z,19.72
2022-11-08T08:32:35.338Z,19.71
2022-11-08T08:37:37.510Z,19.70
2022-11-08T08:42:39.464Z,19.68
2022-11-08T08:47:41.607Z,19.72
2022-11-08T08:52:43.809Z,19.70
2022-11-08T08:57:47.010Z,19.79
2022-11-08T09:02:49.204Z,19.75
2022-11-08T09:07:55.918Z,19.84
2022-11-08T09:12:58.066Z,19.80
2022-11-08T09:18:00.745Z,19.82
2022-11-08T09:23:03.601Z,19.72
2022-11-08T09:28:05.869Z,19.71
2022-11-08T09:33:07.910Z,19.77
2022-11-08T09:38:09.947Z,19.87
2022-11-08T09:43:15.130Z,19.80
2022-11-08T09:48:30.436Z,19.89
2022-11-08T09:54:03.869Z,19.77
2022-11-08T09:59:25.536Z,19.73
2022-11-08T10:04:33.148Z,19.76
2022-11-08T10:09:59.773Z,19.77
2022-11-08T10:15:20.098Z,19.77
2022-11-08T10:20:28.197Z,19.73
2022-11-08T10:25:37.533Z,19.70
2022-11-08T10:30:43.149Z,19.74
2022-11-08T10:36:02.488Z,19.81
2022-11-08T10:41:16.570Z,19.78
2022-11-08T10:46:34.821Z,19.78
2022-11-08T10:51:36.982Z,19.94
2022-11-08T10:56:57.176Z,19.84
2022-11-08T11:01:59.600Z,19.94
2022-11-08T11:07:36.473Z,19.86
2022-11-08T11:12:38.217Z,19.90
2022-11-08T11:17:40.421Z,19.98
2022-11-08T11:22:46.328Z,20.04
2022-11-08T11:28:00.616Z,20.01
2022-11-08T11:33:24.866Z,20.03
2022-11-08T11:38:46.746Z,19.97
2022-11-08T11:44:07.356Z,19.95
2022-11-08T11:49:17.972Z,19.89
2022-11-08T11:54:22.842Z,20.01
2022-11-08T11:59:46.958Z,20.01
2022-11-08T12:05:07.176Z,19.86
2022-11-08T12:10:23.815Z,19.85
2022-11-08T12:15:50.283Z,19.87
2022-11-08T12:20:57.994Z,19.91
2022-11-08T12:26:17.963Z,19.75
2022-11-08T12:31:30.432Z,19.87
2022-11-08T12:36:44.583Z,19.84
2022-11-08T12:41:57.767Z,19.80
2022-11-08T12:47:09.175Z,19.81
2022-11-08T12:52:23.200Z,19.89
2022-11-08T12:57:28.468Z,19.94
2022-11-08T13:02:39.723Z,19.95
2022-11-08T13:08:00.145Z,19.88
2022-11-08T13:13:20.093Z,19.82
2022-11-08T13:18:23.899Z,19.86
2022-11-08T13:23:31.087Z,19.92
2022-11-08T13:28:39.431Z,19.95
2022-11-08T13:34:03.462Z,19.94
2022-11-08T13:39:16.747Z,19.85
2022-11-08T13:44:52.969Z,19.90
2022-11-08T13:50:29.783Z,19.97
2022-11-08T13:55:44.110Z,19.86
2022-11-08T14:00:47.130Z,19.92
2022-11-08T14:05:50.709Z,19.87
2022-11-08T14:11:17.723Z,19.92
2022-11-08T14:16:24.696Z,19.89
2022-11-08T14:21:26.902Z,19.92
2022-11-08T14:26:30.947Z,19.90
2022-11-08T14:31:34.620Z,19.95
2022-11-08T14:36:36.960Z,19.88
2022-11-08T14:41:39.945Z,19.65
2022-11-08T14:46:42.103Z,19.44
2022-11-08T14:51:44.868Z,19.47
2022-11-08T14:56:47.072Z,19.36
2022-11-08T15:01:49.890Z,19.35
2022-11-08T15:06:59.450Z,19.37
2022-11-08T15:12:04.524Z,19.36
2022-11-08T15:17:07.118Z,19.28
2022-11-08T15:22:29.255Z,19.24
2022-11-08T15:27:31.383Z,19.28
2022-11-08T15:32:38.088Z,19.23
2022-11-08T15:37:44.127Z,19.29
2022-11-08T15:42:51.715Z,19.23
2022-11-08T15:48:00.182Z,19.29
2022-11-08T15:53:03.834Z,19.19
2022-11-08T15:58:12.120Z,19.24
2022-11-08T16:03:14.369Z,19.28
2022-11-08T16:08:20.344Z,19.37
2022-11-08T16:13:37.169Z,19.47
2022-11-08T16:18:40.821Z,19.53
2022-11-08T16:23:43.360Z,19.46
2022-11-08T16:28:45.835Z,19.59
2022-11-08T16:33:48.638Z,19.57
2022-11-08T16:38:53.165Z,19.56
2022-11-08T16:43:56.835Z,19.56
2022-11-08T16:48:59.643Z,19.63
2022-11-08T16:54:03.435Z,19.57
2022-11-08T16:59:05.211Z,19.62
2022-11-08T17:04:07.449Z,19.60
2022-11-08T17:09:09.253Z,19.55
2022-11-08T17:14:12.687Z,19.55
2022-11-08T17:19:14.717Z,19.61
2022-11-08T17:24:21.573Z,19.69
2022-11-08T17:29:23.915Z,19.68
2022-11-08T17:34:25.857Z,19.62
2022-11-08T17:39:27.744Z,19.59
2022-11-08T17:44:29.976Z,19.57
2022-11-08T17:49:32.082Z,19.61
2022-11-08T17:54:33.891Z,19.58
2022-11-08T17:59:36.021Z,19.57
2022-11-08T18:04:37.757Z,19.55
2022-11-08T18:09:39.495Z,19.80
2022-11-08T18:14:41.279Z,19.82
2022-11-08T18:19:46.650Z,19.78
2022-11-08T18:24:50.114Z,19.65
2022-11-08T18:29:52.182Z,19.88
2022-11-08T18:34:55.784Z,19.70
2022-11-08T18:39:57.496Z,19.67
2022-11-08T18:44:59.697Z,19.70
2022-11-08T18:50:02.653Z,19.72
2022-11-08T18:55:05.192Z,19.63
2022-11-08T19:00:08.219Z,19.61
2022-11-08T19:05:10.351Z,19.59
2022-11-08T19:10:12.724Z,19.83
2022-11-08T19:15:15.341Z,19.88
2022-11-08T19:20:17.367Z,19.75
2022-11-08T19:25:19.201Z,19.90
2022-11-08T19:30:21.536Z,19.90
2022-11-08T19:35:23.618Z,19.76
2022-11-08T19:40:30.912Z,19.73
2022-11-08T19:45:35.045Z,19.69
2022-11-08T19:50:42.013Z,19.65
2022-11-08T19:55:44.045Z,19.63
2022-11-08T20:00:46.330Z,19.68
2022-11-08T20:05:52.461Z,19.64
2022-11-08T20:10:54.719Z,19.67
2022-11-08T20:16:08.845Z,19.66
2022-11-08T20:21:12.696Z,19.66
2022-11-08T20:26:18.605Z,19.61
2022-11-08T20:31:22.978Z,19.62
2022-11-08T20:36:25.904Z,19.61
2022-11-08T20:41:28.215Z,19.71
2022-11-08T20:46:30.202Z,19.75
2022-11-08T20:51:32.551Z,19.74
2022-11-08T20:56:34.541Z,19.77
2022-11-08T21:01:36.931Z,19.76
2022-11-08T21:06:39.204Z,19.75
2022-11-08T21:11:41.469Z,19.77
2022-11-08T21:17:14.754Z,19.78
2022-11-08T21:22:17.676Z,19.85
2022-11-08T21:27:19.757Z,19.75
2022-11-08T21:32:21.491Z,19.69
2022-11-08T21:37:23.536Z,19.70
2022-11-08T21:42:25.565Z,19.68
2022-11-08T21:47:27.961Z,19.66
2022-11-08T21:52:30.303Z,19.63
2022-11-08T21:57:32.262Z,19.70
2022-11-08T22:02:34.292Z,19.73
2022-11-08T22:07:36.979Z,19.92
2022-11-08T22:12:40.034Z,19.95
2022-11-08T22:18:07.628Z,19.90
2022-11-08T22:23:08.836Z,19.97
2022-11-08T22:28:11.149Z,19.96
2022-11-08T22:33:13.204Z,19.81
2022-11-08T22:38:16.485Z,19.88
2022-11-08T22:43:18.883Z,19.79
2022-11-08T22:48:21.311Z,19.85
2022-11-08T22:53:23.712Z,19.81
2022-11-08T22:58:25.608Z,19.76
2022-11-08T23:03:27.835Z,19.76
2022-11-08T23:08:30.393Z,19.74
2022-11-08T23:13:51.091Z,19.75
2022-11-08T23:19:13.222Z,19.76
2022-11-08T23:24:21.193Z,19.80
2022-11-08T23:29:41.746Z,19.80
2022-11-08T23:34:43.742Z,19.85
2022-11-08T23:40:06.004Z,19.84
2022-11-08T23:45:08.727Z,19.79
2022-11-08T23:50:10.739Z,19.78
2022-11-08T23:55:12.581Z,19.67
